createdAt,value
2023-05-08T00:01:11.655Z,9.41
2023-05-08T00:04:14.388Z,9.49
2023-05-08T00:07:16.769Z,9.58
2023-05-08T00:10:19.059Z,9.73
2023-05-08T00:13:21.448Z,9.87
2023-05-08T00:16:23.813Z,9.73
2023-05-08T00:19:26.092Z,9.55
2023-05-08T00:22:28.379Z,9.63
2023-05-08T00:25:32.009Z,9.29
2023-05-08T00:28:34.262Z,9.47
2023-05-08T00:31:36.509Z,9.36
2023-05-08T00:34:38.784Z,9.27
2023-05-08T00:37:41.382Z,9.39
2023-05-08T00:40:43.638Z,9.32
2023-05-08T00:43:46.020Z,9.14
2023-05-08T00:46:48.749Z,9.21
2023-05-08T00:49:53.484Z,9.24
2023-05-08T00:52:57.593Z,9.14
2023-05-08T00:56:00.198Z,8.84
2023-05-08T00:59:03.780Z,8.92
2023-05-08T01:02:06.517Z,8.96
2023-05-08T01:05:09.091Z,8.91
2023-05-08T01:08:11.689Z,8.84
2023-05-08T01:11:29.072Z,8.68
2023-05-08T01:15:12.467Z,8.43
2023-05-08T01:18:25.880Z,8.40
2023-05-08T01:22:07.934Z,8.56
2023-05-08T01:25:55.497Z,8.35
2023-05-08T01:29:22.578Z,8.22
2023-05-08T01:32:30.385Z,8.26
2023-05-08T01:35:49.891Z,8.24
2023-05-08T01:39:20.381Z,8.41
2023-05-08T01:42:28.797Z,8.45
2023-05-08T01:45:41.976Z,8.61
2023-05-08T01:48:50.482Z,8.83
2023-05-08T01:51:56.912Z,8.69
2023-05-08T01:55:04.316Z,8.62
2023-05-08T01:58:09.790Z,8.74
2023-05-08T02:01:14.722Z,8.79
2023-05-08T02:04:17.949Z,9.00
2023-05-08T02:07:23.479Z,8.84
2023-05-08T02:10:27.777Z,8.84
2023-05-08T02:13:32.092Z,8.99
2023-05-08T02:16:36.080Z,9.12
2023-05-08T02:19:40.971Z,9.14
2023-05-08T02:22:45.114Z,9.06
2023-05-08T02:25:48.358Z,9.16
2023-05-08T02:28:55.906Z,9.26
2023-05-08T02:32:01.139Z,9.32
2023-05-08T02:35:04.728Z,9.23
2023-05-08T02:38:10.837Z,9.25
2023-05-08T02:41:14.477Z,9.30
2023-05-08T02:44:17.848Z,9.47
2023-05-08T02:47:28.804Z,9.41
2023-05-08T02:51:00.603Z,9.33
2023-05-08T02:54:10.785Z,9.34
2023-05-08T02:57:23.209Z,9.34
2023-05-08T03:00:32.850Z,9.34
2023-05-08T03:03:42.551Z,9.33
2023-05-08T03:06:47.804Z,9.28
2023-05-08T03:09:58.861Z,9.19
2023-05-08T03:13:09.196Z,9.19
2023-05-08T03:16:16.496Z,9.09
2023-05-08T03:19:31.548Z,9.19
2023-05-08T03:22:39.382Z,9.26
2023-05-08T03:25:43.783Z,9.37
2023-05-08T03:28:52.512Z,9.57
2023-05-08T03:31:58.642Z,9.58
2023-05-08T03:35:01.498Z,9.50
2023-05-08T03:38:05.330Z,9.59
2023-05-08T03:41:07.768Z,9.32
2023-05-08T03:44:11.373Z,9.45
2023-05-08T03:47:13.820Z,9.57
2023-05-08T03:50:16.671Z,9.52
2023-05-08T03:53:19.036Z,9.52
2023-05-08T03:56:21.524Z,9.56
2023-05-08T03:59:36.531Z,9.48
2023-05-08T04:02:52.422Z,9.66
2023-05-08T04:06:03.078Z,9.68
2023-05-08T04:09:13.213Z,9.72
2023-05-08T04:12:54.249Z,9.85
2023-05-08T04:16:16.583Z,9.65
2023-05-08T04:19:29.503Z,9.71
2023-05-08T04:22:34.632Z,9.78
2023-05-08T04:25:39.881Z,9.66
2023-05-08T04:28:42.825Z,9.66
2023-05-08T04:31:45.834Z,9.58
2023-05-08T04:34:48.471Z,9.85
2023-05-08T04:37:50.962Z,9.80
2023-05-08T04:40:54.439Z,9.88
2023-05-08T04:43:56.976Z,9.96
2023-05-08T04:46:59.429Z,9.69
2023-05-08T04:50:03.020Z,10.06
2023-05-08T04:53:07.404Z,10.03
2023-05-08T04:56:10.352Z,10.07
2023-05-08T04:59:14.727Z,10.21
2023-05-08T05:02:18.787Z,10.09
2023-05-08T05:05:22.575Z,9.97
2023-05-08T05:08:25.661Z,10.10
2023-05-08T05:11:29.118Z,10.26
2023-05-08T05:14:31.964Z,10.12
2023-05-08T05:17:35.337Z,10.26
2023-05-08T05:20:38.432Z,10.30
2023-05-08T05:23:41.428Z,10.27
2023-05-08T05:26:44.035Z,10.23
2023-05-08T05:29:47.104Z,10.34
2023-05-08T05:32:49.504Z,10.51
2023-05-08T05:35:52.519Z,10.66
2023-05-08T05:38:54.863Z,10.68
2023-05-08T05:41:57.153Z,10.80
2023-05-08T05:44:59.535Z,10.83
2023-05-08T05:48:02.490Z,11.09
2023-05-08T05:51:06.379Z,10.99
2023-05-08T05:54:09.621Z,11.23
2023-05-08T05:57:13.959Z,11.59
2023-05-08T06:00:17.517Z,12.01
2023-05-08T06:03:26.635Z,12.32
2023-05-08T06:06:29.161Z,12.79
2023-05-08T06:09:31.426Z,12.77
2023-05-08T06:12:34.022Z,12.53
2023-05-08T06:15:36.870Z,12.61
2023-05-08T06:18:39.195Z,12.71
2023-05-08T06:21:41.645Z,12.83
2023-05-08T06:24:44.294Z,13.13
2023-05-08T06:27:46.579Z,13.77
2023-05-08T06:30:48.989Z,13.80
2023-05-08T06:33:51.320Z,13.36
2023-05-08T06:36:53.563Z,13.63
2023-05-08T06:40:07.960Z,13.74
2023-05-08T06:43:13.773Z,14.02
2023-05-08T06:46:17.051Z,14.39
2023-05-08T06:49:44.568Z,15.00
2023-05-08T06:52:49.967Z,14.93
2023-05-08T06:55:52.359Z,15.39
2023-05-08T06:59:04.974Z,14.94
2023-05-08T07:02:11.289Z,15.33
2023-05-08T07:05:14.168Z,15.73
2023-05-08T07:08:16.867Z,16.05
2023-05-08T07:11:19.177Z,16.21
2023-05-08T07:14:21.471Z,16.35
2023-05-08T07:17:23.824Z,16.17
2023-05-08T07:20:26.457Z,16.21
2023-05-08T07:23:28.791Z,16.46
2023-05-08T07:26:31.080Z,16.94
2023-05-08T07:29:33.569Z,17.30
2023-05-08T07:32:36.404Z,17.98
2023-05-08T07:35:42.673Z,19.82
2023-05-08T09:08:10.611Z,24.44
2023-05-08T09:11:13.085Z,25.75
2023-05-08T09:14:15.448Z,24.93
2023-05-08T09:17:17.843Z,25.30
2023-05-08T09:20:20.978Z,24.70
2023-05-08T09:23:23.360Z,25.39
2023-05-08T09:26:41.909Z,25.84
2023-05-08T09:29:59.475Z,25.62
2023-05-08T09:33:03.251Z,24.83
2023-05-08T09:36:05.909Z,25.10
2023-05-08T09:39:13.997Z,26.25
2023-05-08T09:42:16.560Z,26.46
2023-05-08T09:45:31.702Z,26.19
2023-05-08T09:48:38.848Z,23.85
2023-05-08T09:51:54.160Z,25.59
2023-05-08T09:55:02.189Z,25.37
2023-05-08T09:58:04.958Z,26.54
2023-05-08T10:01:08.923Z,26.08
2023-05-08T10:04:11.316Z,25.40
2023-05-08T10:07:13.678Z,26.23
2023-05-08T10:10:24.256Z,28.87
2023-05-08T10:13:26.824Z,29.56
2023-05-08T10:16:30.308Z,28.13
2023-05-08T10:19:33.285Z,26.90
2023-05-08T10:22:37.894Z,29.04
2023-05-08T10:25:47.797Z,28.46
2023-05-08T10:28:57.078Z,28.72
2023-05-08T10:32:01.043Z,30.17
2023-05-08T10:35:03.841Z,27.29
2023-05-08T10:38:09.218Z,27.73
2023-05-08T10:41:12.155Z,26.96
2023-05-08T10:44:15.367Z,28.78
2023-05-08T10:47:39.655Z,27.77
2023-05-08T10:51:01.358Z,26.95
2023-05-08T10:54:19.190Z,27.90
2023-05-08T10:57:21.541Z,27.20
2023-05-08T11:00:24.358Z,28.46
2023-05-08T11:03:32.185Z,28.32
2023-05-08T11:06:46.824Z,27.66
2023-05-08T11:09:49.203Z,26.31
2023-05-08T11:12:52.258Z,26.75
2023-05-08T11:15:54.988Z,26.93
2023-05-08T11:19:17.408Z,26.40
2023-05-08T11:22:20.263Z,25.96
2023-05-08T11:25:43.591Z,25.77
2023-05-08T11:28:58.540Z,24.55
2023-05-08T11:32:01.262Z,24.48
2023-05-08T11:35:04.126Z,24.07
2023-05-08T11:38:24.682Z,23.42
2023-05-08T11:41:27.613Z,21.48
2023-05-08T11:44:31.123Z,22.68
2023-05-08T11:47:46.486Z,23.20
2023-05-08T11:50:50.052Z,22.04
2023-05-08T11:53:52.823Z,22.65
2023-05-08T11:56:55.476Z,22.13
2023-05-08T11:59:58.206Z,21.62
2023-05-08T12:03:00.616Z,21.98
2023-05-08T12:06:03.206Z,22.14
2023-05-08T12:09:19.174Z,22.53
2023-05-08T12:12:21.501Z,22.33
2023-05-08T12:15:24.265Z,21.92
2023-05-08T12:18:29.298Z,22.76
2023-05-08T12:21:32.041Z,23.04
2023-05-08T12:24:34.699Z,22.83
2023-05-08T12:27:38.269Z,22.73
2023-05-08T12:30:41.671Z,22.33
2023-05-08T12:33:44.254Z,21.02
2023-05-08T12:36:46.676Z,21.30
2023-05-08T12:39:49.023Z,21.51
2023-05-08T12:42:51.815Z,22.00
2023-05-08T12:45:54.125Z,21.63
2023-05-08T12:49:08.221Z,20.74
2023-05-08T12:52:13.964Z,20.75
2023-05-08T12:55:24.473Z,21.18
2023-05-08T12:58:29.175Z,21.26
2023-05-08T13:01:31.504Z,21.04
2023-05-08T13:04:38.557Z,20.71
2023-05-08T13:07:41.222Z,20.91
2023-05-08T13:10:50.922Z,21.00
2023-05-08T13:13:53.198Z,21.23
2023-05-08T13:16:55.633Z,21.07
2023-05-08T13:19:58.731Z,21.05
2023-05-08T13:23:01.933Z,20.31
2023-05-08T13:26:04.432Z,20.88
2023-05-08T13:29:06.737Z,20.19
2023-05-08T13:32:09.122Z,20.66
2023-05-08T13:35:11.642Z,20.93
2023-05-08T13:38:14.230Z,19.54
2023-05-08T13:41:16.943Z,20.16
2023-05-08T13:44:19.454Z,20.42
2023-05-08T13:47:21.852Z,20.65
2023-05-08T13:50:24.196Z,20.08
2023-05-08T13:53:26.641Z,20.68
2023-05-08T13:56:28.957Z,20.63
2023-05-08T13:59:32.593Z,20.16
2023-05-08T14:02:35.256Z,20.67
2023-05-08T14:05:37.638Z,20.59
2023-05-08T14:08:45.240Z,20.16
2023-05-08T14:11:48.449Z,19.88
2023-05-08T14:14:51.204Z,20.07
2023-05-08T14:17:53.913Z,19.18
2023-05-08T14:20:57.589Z,19.17
2023-05-08T14:24:00.246Z,19.81
2023-05-08T14:27:06.359Z,19.40
2023-05-08T14:30:09.338Z,19.65
2023-05-08T14:33:12.172Z,19.54
2023-05-08T14:36:14.549Z,19.04
2023-05-08T14:39:17.042Z,18.83
2023-05-08T14:42:23.440Z,19.30
2023-05-08T14:45:26.613Z,19.36
2023-05-08T14:48:28.971Z,19.37
2023-05-08T14:51:31.675Z,19.56
2023-05-08T14:54:34.612Z,19.76
2023-05-08T14:57:37.507Z,19.82
2023-05-08T15:00:40.086Z,19.29
2023-05-08T15:03:42.574Z,19.24
2023-05-08T15:06:45.090Z,18.78
2023-05-08T15:09:48.296Z,18.68
2023-05-08T15:12:50.953Z,18.23
2023-05-08T15:15:53.793Z,18.74
2023-05-08T15:18:56.493Z,18.73
2023-05-08T15:21:59.097Z,18.54
2023-05-08T15:25:02.788Z,18.64
2023-05-08T15:28:05.348Z,18.60
2023-05-08T15:31:07.646Z,18.21
2023-05-08T15:34:10.157Z,18.34
2023-05-08T15:37:12.506Z,18.51
2023-05-08T15:40:14.928Z,18.47
2023-05-08T15:43:17.271Z,18.48
2023-05-08T15:46:19.707Z,18.49
2023-05-08T15:49:26.020Z,17.73
2023-05-08T15:52:28.429Z,17.73
2023-05-08T15:55:30.935Z,17.79
2023-05-08T15:58:33.446Z,17.25
2023-05-08T16:01:36.061Z,17.20
2023-05-08T16:04:38.358Z,16.97
2023-05-08T16:07:40.854Z,16.80
2023-05-08T16:10:43.241Z,16.55
2023-05-08T16:13:45.794Z,16.53
2023-05-08T16:16:48.247Z,16.28
2023-05-08T16:19:50.630Z,16.28
2023-05-08T16:22:55.142Z,16.07
2023-05-08T16:25:57.641Z,15.91
2023-05-08T16:29:00.159Z,15.58
2023-05-08T16:32:02.835Z,15.63
2023-05-08T16:35:06.484Z,15.54
2023-05-08T16:38:09.007Z,15.44
2023-05-08T16:41:12.981Z,15.35
2023-05-08T16:44:15.460Z,15.35
2023-05-08T16:47:17.745Z,15.27
2023-05-08T16:50:20.424Z,14.98
2023-05-08T16:53:23.089Z,14.85
2023-05-08T16:56:25.447Z,14.79
2023-05-08T16:59:27.938Z,14.67
2023-05-08T17:02:30.976Z,14.63
2023-05-08T17:05:33.710Z,14.48
2023-05-08T17:08:36.518Z,14.22
2023-05-08T17:11:38.979Z,14.32
2023-05-08T17:14:42.784Z,14.23
2023-05-08T17:17:47.958Z,14.06
2023-05-08T17:20:51.058Z,13.82
2023-05-08T17:27:16.850Z,13.39
2023-05-08T17:30:19.629Z,13.15
2023-05-08T17:33:21.979Z,12.97
2023-05-08T17:36:24.489Z,12.92
2023-05-08T17:39:27.253Z,12.80
2023-05-08T17:42:29.542Z,12.53
2023-05-08T17:45:32.540Z,12.27
2023-05-08T17:48:35.425Z,12.49
2023-05-08T17:51:38.133Z,12.20
2023-05-08T17:54:40.764Z,12.20
2023-05-08T17:57:43.174Z,11.98
2023-05-08T18:00:48.467Z,11.90
2023-05-08T18:03:52.865Z,11.94
2023-05-08T18:06:55.453Z,11.90
2023-05-08T18:09:59.268Z,11.97
2023-05-08T18:13:01.684Z,11.85
2023-05-08T18:16:04.220Z,11.79
2023-05-08T18:19:10.715Z,11.65
2023-05-08T18:22:14.086Z,11.48
2023-05-08T18:25:19.935Z,11.39
2023-05-08T18:28:22.535Z,11.38
2023-05-08T18:31:25.636Z,11.43
2023-05-08T18:34:27.931Z,11.21
2023-05-08T18:37:34.228Z,11.26
2023-05-08T18:40:40.674Z,11.17
2023-05-08T18:43:43.119Z,11.05
2023-05-08T18:46:45.478Z,11.25
2023-05-08T18:49:48.234Z,11.15
2023-05-08T18:52:51.500Z,11.08
2023-05-08T18:55:53.847Z,11.06
2023-05-08T18:58:56.479Z,11.05
2023-05-08T19:01:59.194Z,11.15
2023-05-08T19:05:01.830Z,11.36
2023-05-08T19:08:07.663Z,11.29
2023-05-08T19:11:11.925Z,11.11
2023-05-08T19:14:17.432Z,11.03
2023-05-08T19:17:21.590Z,10.97
2023-05-08T19:20:24.962Z,10.74
2023-05-08T19:23:27.793Z,10.60
2023-05-08T19:26:32.109Z,10.46
2023-05-08T19:29:35.440Z,10.24
2023-05-08T19:32:41.868Z,10.09
2023-05-08T19:35:45.514Z,10.13
2023-05-08T19:38:48.966Z,10.09
2023-05-08T19:41:51.282Z,9.91
2023-05-08T19:44:55.943Z,9.97
2023-05-08T19:47:58.645Z,9.46
2023-05-08T19:51:11.899Z,9.41
2023-05-08T19:54:15.918Z,9.60
2023-05-08T19:57:22.475Z,9.39
2023-05-08T20:00:29.060Z,9.55
2023-05-08T20:03:32.017Z,9.66
2023-05-08T20:06:34.779Z,9.75
2023-05-08T20:09:41.969Z,9.75
2023-05-08T20:12:44.382Z,9.72
2023-05-08T20:15:46.939Z,9.88
2023-05-08T20:18:49.656Z,9.99
2023-05-08T20:21:56.748Z,10.10
2023-05-08T20:25:00.170Z,10.18
2023-05-08T20:28:03.997Z,9.96
2023-05-08T20:31:06.454Z,10.02
2023-05-08T20:34:09.087Z,10.08
2023-05-08T20:37:12.183Z,10.26
2023-05-08T20:40:17.860Z,10.33
2023-05-08T20:43:20.474Z,10.12
2023-05-08T20:46:23.521Z,10.00
2023-05-08T20:49:26.177Z,9.92
2023-05-08T20:52:33.343Z,9.69
2023-05-08T20:55:37.892Z,9.73
2023-05-08T20:58:40.365Z,9.73
2023-05-08T21:01:43.024Z,9.71
2023-05-08T21:04:45.927Z,9.64
2023-05-08T21:07:48.809Z,9.40
2023-05-08T21:10:52.139Z,9.51
2023-05-08T21:13:55.072Z,9.63
2023-05-08T21:16:57.602Z,9.48
2023-05-08T21:20:00.386Z,9.40
2023-05-08T21:23:02.987Z,9.35
2023-05-08T21:26:05.578Z,9.28
2023-05-08T21:29:11.623Z,9.25
2023-05-08T21:32:14.361Z,9.15
2023-05-08T21:35:17.542Z,9.00
2023-05-08T21:38:20.341Z,9.01
2023-05-08T21:41:22.647Z,8.96
2023-05-08T21:44:24.968Z,8.97
2023-05-08T21:47:28.194Z,8.80
2023-05-08T21:50:30.841Z,8.74
2023-05-08T21:53:33.323Z,8.93
2023-05-08T21:56:35.585Z,9.08
2023-05-08T21:59:37.877Z,9.13
2023-05-08T22:02:40.204Z,9.17
2023-05-08T22:05:42.527Z,9.29
2023-05-08T22:08:44.827Z,9.29
2023-05-08T22:11:47.137Z,8.96
2023-05-08T22:14:49.432Z,9.00
2023-05-08T22:17:51.736Z,9.04
2023-05-08T22:20:55.095Z,8.80
2023-05-08T22:23:57.400Z,8.95
2023-05-08T22:26:59.672Z,8.99
2023-05-08T22:30:02.386Z,9.06
2023-05-08T22:33:04.681Z,9.15
2023-05-08T22:36:07.680Z,9.07
2023-05-08T22:39:13.040Z,8.97
2023-05-08T22:42:16.271Z,8.98
2023-05-08T22:45:18.953Z,8.95
2023-05-08T22:48:21.568Z,8.82
2023-05-08T22:51:23.854Z,8.68
2023-05-08T22:54:26.141Z,8.58
2023-05-08T22:57:28.466Z,8.60
2023-05-08T23:00:30.769Z,8.43
2023-05-08T23:03:33.009Z,8.32
2023-05-08T23:06:35.880Z,8.37
2023-05-08T23:09:38.185Z,8.26
2023-05-08T23:12:40.452Z,8.25
2023-05-08T23:15:43.115Z,8.15
2023-05-08T23:18:45.439Z,8.31
2023-05-08T23:21:47.672Z,8.35
2023-05-08T23:24:49.952Z,8.34
2023-05-08T23:27:52.279Z,8.21
2023-05-08T23:30:54.602Z,8.05
2023-05-08T23:33:56.958Z,8.08
2023-05-08T23:37:01.493Z,8.07
2023-05-08T23:40:04.097Z,8.00
2023-05-08T23:43:06.624Z,7.93
2023-05-08T23:46:09.906Z,8.03
2023-05-08T23:49:12.779Z,8.01
2023-05-08T23:52:15.129Z,7.77
2023-05-08T23:55:17.541Z,7.46
2023-05-08T23:58:19.856Z,7.46
